createdAt,value
2023-01-19T00:02:04.238Z,-0.55
2023-01-19T00:05:06.136Z,-0.63
2023-01-19T00:08:14.751Z,-0.51
2023-01-19T00:11:19.377Z,-0.40
2023-01-19T00:14:21.080Z,-0.55
2023-01-19T00:17:22.672Z,-0.57
2023-01-19T00:20:24.096Z,-0.60
2023-01-19T00:23:25.935Z,-0.63
2023-01-19T00:26:27.438Z,-0.49
2023-01-19T00:29:33.368Z,-0.64
2023-01-19T00:32:34.971Z,-0.73
2023-01-19T00:35:36.773Z,-0.56
2023-01-19T00:38:38.976Z,-0.57
2023-01-19T00:41:59.097Z,-0.64
2023-01-19T00:45:00.589Z,-0.67
2023-01-19T00:48:02.359Z,-0.94
2023-01-19T00:51:03.946Z,-0.66
2023-01-19T00:54:05.433Z,-0.59
2023-01-19T00:57:07.017Z,-0.56
2023-01-19T01:00:11.946Z,-0.70
2023-01-19T01:03:13.399Z,-0.59
2023-01-19T01:06:14.920Z,-0.81
2023-01-19T01:09:16.388Z,-0.51
2023-01-19T01:12:17.919Z,-0.77
2023-01-19T01:15:19.788Z,-0.53
2023-01-19T01:18:21.925Z,-0.43
2023-01-19T01:21:23.793Z,-0.37
2023-01-19T01:24:25.241Z,-0.46
2023-01-19T01:27:26.651Z,-0.34
2023-01-19T01:30:28.105Z,-0.52
2023-01-19T01:33:40.737Z,-0.64
2023-01-19T01:36:43.566Z,-0.51
2023-01-19T01:39:45.018Z,-0.36
2023-01-19T01:42:46.689Z,-0.46
2023-01-19T01:45:48.398Z,-0.69
2023-01-19T01:48:53.914Z,-0.66
2023-01-19T01:51:55.409Z,-0.57
2023-01-19T01:54:58.122Z,-0.79
2023-01-19T01:58:03.746Z,-0.63
2023-01-19T02:01:25.432Z,-0.61
2023-01-19T02:04:31.819Z,-0.62
2023-01-19T02:08:04.318Z,-0.92
2023-01-19T02:11:25.139Z,-0.72
2023-01-19T02:14:26.598Z,-0.83
2023-01-19T02:17:28.315Z,-0.79
2023-01-19T02:20:33.513Z,-0.74
2023-01-19T02:23:40.550Z,-0.59
2023-01-19T02:26:46.862Z,-0.37
2023-01-19T02:29:48.519Z,-0.32
2023-01-19T02:32:50.210Z,-0.32
2023-01-19T02:35:54.573Z,-0.27
2023-01-19T02:38:57.855Z,-0.05
2023-01-19T02:42:04.374Z,-0.16
2023-01-19T02:45:09.500Z,-0.06
2023-01-19T02:48:11.332Z,-0.17
2023-01-19T02:51:21.076Z,0.12
2023-01-19T02:54:49.176Z,0.00
2023-01-19T02:58:10.334Z,-0.24
2023-01-19T03:01:56.103Z,-0.08
2023-01-19T03:05:14.150Z,0.06
2023-01-19T03:08:39.867Z,-0.22
2023-01-19T03:11:46.839Z,0.12
2023-01-19T03:14:48.944Z,-0.04
2023-01-19T03:17:52.179Z,0.02
2023-01-19T03:20:57.851Z,-0.01
2023-01-19T03:24:03.137Z,0.06
2023-01-19T03:27:10.993Z,-0.29
2023-01-19T03:30:24.135Z,-0.11
2023-01-19T03:33:30.703Z,-0.24
2023-01-19T03:36:37.011Z,-0.34
2023-01-19T03:39:38.515Z,-0.62
2023-01-19T03:42:41.088Z,-0.58
2023-01-19T03:45:43.209Z,-0.39
2023-01-19T03:48:46.062Z,-0.47
2023-01-19T03:51:47.675Z,-0.38
2023-01-19T03:54:49.217Z,-0.42
2023-01-19T03:57:50.649Z,-0.38
2023-01-19T04:00:52.508Z,-0.35
2023-01-19T04:03:54.278Z,-0.32
2023-01-19T04:06:55.748Z,-0.37
2023-01-19T04:09:57.210Z,-0.28
2023-01-19T04:13:00.683Z,-0.37
2023-01-19T04:16:04.016Z,-0.40
2023-01-19T04:19:05.463Z,-0.61
2023-01-19T04:22:06.929Z,-0.63
2023-01-19T04:25:09.672Z,-0.65
2023-01-19T04:28:11.721Z,-0.77
2023-01-19T04:31:13.295Z,-0.72
2023-01-19T04:34:14.804Z,-0.73
2023-01-19T04:37:16.227Z,-0.69
2023-01-19T04:40:17.809Z,-0.63
2023-01-19T04:43:20.536Z,-0.62
2023-01-19T04:46:22.002Z,-0.67
2023-01-19T04:49:23.921Z,-0.53
2023-01-19T04:52:25.586Z,-0.52
2023-01-19T04:55:27.175Z,-0.61
2023-01-19T04:58:28.629Z,-0.82
2023-01-19T05:01:30.238Z,-0.90
2023-01-19T05:04:32.009Z,-0.93
2023-01-19T05:07:33.526Z,-0.87
2023-01-19T05:10:36.524Z,-0.94
2023-01-19T05:13:38.018Z,-0.80
2023-01-19T05:16:39.518Z,-1.00
2023-01-19T05:19:40.959Z,-0.89
2023-01-19T05:22:42.522Z,-0.77
2023-01-19T05:25:44.537Z,-0.79
2023-01-19T05:28:46.043Z,-0.82
2023-01-19T05:31:47.589Z,-0.90
2023-01-19T05:34:49.079Z,-0.91
2023-01-19T05:37:50.832Z,-0.97
2023-01-19T05:40:58.063Z,-0.87
2023-01-19T05:43:59.544Z,-0.91
2023-01-19T05:47:01.072Z,-1.03
2023-01-19T05:50:02.654Z,-0.97
2023-01-19T05:53:04.433Z,-0.95
2023-01-19T05:56:11.372Z,-1.12
2023-01-19T05:59:12.860Z,-1.14
2023-01-19T06:02:14.529Z,-1.08
2023-01-19T06:05:16.945Z,-0.98
2023-01-19T06:08:18.573Z,-0.88
2023-01-19T06:11:20.943Z,-1.03
2023-01-19T06:14:22.359Z,-0.75
2023-01-19T06:17:24.160Z,-0.95
2023-01-19T06:20:25.656Z,-0.55
2023-01-19T06:23:32.426Z,-0.51
2023-01-19T06:26:34.020Z,-0.43
2023-01-19T06:29:35.549Z,-0.26
2023-01-19T06:32:37.284Z,-0.52
2023-01-19T06:35:38.736Z,-0.61
2023-01-19T06:38:40.311Z,-0.36
2023-01-19T06:41:41.963Z,-0.32
2023-01-19T06:44:47.401Z,-0.13
2023-01-19T06:47:48.942Z,-0.11
2023-01-19T06:50:50.538Z,-0.25
2023-01-19T06:53:51.979Z,-0.16
2023-01-19T06:56:53.395Z,-0.10
2023-01-19T06:59:54.865Z,-0.14
2023-01-19T07:02:56.578Z,-0.14
2023-01-19T07:06:00.215Z,-0.26
2023-01-19T07:09:07.016Z,-0.01
2023-01-19T07:12:09.300Z,-0.07
2023-01-19T07:15:11.780Z,-0.08
2023-01-19T07:18:13.201Z,-0.21
2023-01-19T07:21:15.349Z,-0.29
2023-01-19T07:24:16.848Z,-0.21
2023-01-19T07:27:18.346Z,-0.25
2023-01-19T07:30:19.874Z,-0.21
2023-01-19T07:33:28.692Z,-0.05
2023-01-19T07:36:30.335Z,-0.02
2023-01-19T07:39:32.244Z,-0.22
2023-01-19T07:42:33.730Z,-0.44
2023-01-19T07:45:36.088Z,-0.40
2023-01-19T07:48:37.507Z,-0.17
2023-01-19T07:51:39.130Z,-0.09
2023-01-19T07:54:40.599Z,0.08
2023-01-19T07:57:42.129Z,0.11
2023-01-19T08:00:43.647Z,-0.01
2023-01-19T08:03:47.163Z,-0.11
2023-01-19T08:06:48.727Z,-0.24
2023-01-19T08:09:50.188Z,-0.30
2023-01-19T08:12:55.479Z,-0.26
2023-01-19T08:15:57.002Z,0.00
2023-01-19T08:18:58.514Z,0.12
2023-01-19T08:22:00.216Z,-0.06
2023-01-19T08:25:01.740Z,0.14
2023-01-19T08:28:05.569Z,0.19
2023-01-19T08:31:19.177Z,0.00
2023-01-19T08:34:21.761Z,0.31
2023-01-19T08:37:24.750Z,0.27
2023-01-19T08:40:26.644Z,0.20
2023-01-19T08:43:28.118Z,0.51
2023-01-19T08:46:29.678Z,0.54
2023-01-19T08:49:31.362Z,0.52
2023-01-19T08:52:32.789Z,0.43
2023-01-19T08:55:37.546Z,0.53
2023-01-19T08:58:43.872Z,0.62
2023-01-19T09:01:45.553Z,0.56
2023-01-19T09:04:47.091Z,0.66
2023-01-19T09:07:48.557Z,0.73
2023-01-19T09:10:51.547Z,0.56
2023-01-19T09:13:53.068Z,0.44
2023-01-19T09:16:56.165Z,0.56
2023-01-19T09:19:58.408Z,0.68
2023-01-19T09:23:00.365Z,0.76
2023-01-19T09:26:03.619Z,0.74
2023-01-19T09:29:05.077Z,0.75
2023-01-19T09:32:06.575Z,0.73
2023-01-19T09:35:08.419Z,0.73
2023-01-19T09:38:11.011Z,1.07
2023-01-19T09:41:21.345Z,0.87
2023-01-19T09:44:31.809Z,1.05
2023-01-19T09:47:36.746Z,1.09
2023-01-19T09:50:46.586Z,1.04
2023-01-19T09:54:05.118Z,1.02
2023-01-19T09:57:11.548Z,1.06
2023-01-19T10:00:24.285Z,1.11
2023-01-19T10:03:25.746Z,1.19
2023-01-19T10:06:27.831Z,1.25
2023-01-19T10:09:53.408Z,1.25
2023-01-19T10:13:34.390Z,1.33
2023-01-19T10:17:00.878Z,1.30
2023-01-19T10:20:04.780Z,1.16
2023-01-19T10:23:38.454Z,1.32
2023-01-19T10:26:52.755Z,1.28
2023-01-19T10:29:54.640Z,1.50
2023-01-19T10:32:56.156Z,1.60
2023-01-19T10:35:57.639Z,2.10
2023-01-19T10:38:59.193Z,2.77
2023-01-19T10:42:03.504Z,2.75
2023-01-19T10:45:29.284Z,2.53
2023-01-19T10:48:38.805Z,2.82
2023-01-19T10:51:48.940Z,2.04
2023-01-19T10:54:50.906Z,2.15
2023-01-19T10:57:53.597Z,1.79
2023-01-19T11:00:55.580Z,1.75
2023-01-19T11:04:05.436Z,1.58
2023-01-19T11:07:23.656Z,1.99
2023-01-19T11:10:26.489Z,2.23
2023-01-19T11:13:28.353Z,2.33
2023-01-19T11:16:34.720Z,2.65
2023-01-19T11:19:36.336Z,2.85
2023-01-19T11:22:37.909Z,2.52
2023-01-19T11:25:39.457Z,2.83
2023-01-19T11:28:45.713Z,3.41
2023-01-19T11:31:47.686Z,3.47
2023-01-19T11:34:49.955Z,2.93
2023-01-19T11:38:13.212Z,2.80
2023-01-19T11:41:23.746Z,2.40
2023-01-19T11:44:39.105Z,2.52
2023-01-19T11:47:52.579Z,2.71
2023-01-19T11:50:55.411Z,2.73
2023-01-19T11:53:56.971Z,2.64
2023-01-19T11:57:00.172Z,2.24
2023-01-19T12:00:17.597Z,2.37
2023-01-19T12:03:21.968Z,2.12
2023-01-19T12:06:29.551Z,1.88
2023-01-19T12:09:34.377Z,2.24
2023-01-19T12:12:39.969Z,2.06
2023-01-19T12:15:47.355Z,2.03
2023-01-19T12:19:07.420Z,2.32
2023-01-19T12:22:15.776Z,2.36
2023-01-19T12:25:24.879Z,2.33
2023-01-19T12:28:31.679Z,1.94
2023-01-19T12:31:33.719Z,1.90
2023-01-19T12:34:47.644Z,2.25
2023-01-19T12:37:49.103Z,2.50
2023-01-19T12:40:50.595Z,2.44
2023-01-19T12:44:16.560Z,2.22
2023-01-19T12:47:20.968Z,2.36
2023-01-19T12:50:25.876Z,2.26
2023-01-19T12:53:27.601Z,2.07
2023-01-19T12:56:31.141Z,2.24
2023-01-19T12:59:36.733Z,2.34
2023-01-19T13:02:47.453Z,2.45
2023-01-19T13:05:55.089Z,2.71
2023-01-19T13:09:00.040Z,2.51
2023-01-19T13:12:19.632Z,2.55
2023-01-19T13:15:36.574Z,2.57
2023-01-19T13:18:41.624Z,2.76
2023-01-19T13:21:48.455Z,2.75
2023-01-19T13:25:13.083Z,2.67
2023-01-19T13:28:17.817Z,2.61
2023-01-19T13:31:20.353Z,2.46
2023-01-19T13:34:27.787Z,2.17
2023-01-19T13:37:38.913Z,2.65
2023-01-19T13:40:40.775Z,2.77
2023-01-19T13:43:43.131Z,2.65
2023-01-19T13:46:46.133Z,2.46
2023-01-19T13:49:50.965Z,2.40
2023-01-19T13:52:55.412Z,2.62
2023-01-19T13:56:17.449Z,2.64
2023-01-19T13:59:18.876Z,2.69
2023-01-19T14:02:21.198Z,2.71
2023-01-19T14:05:28.827Z,2.69
2023-01-19T14:08:32.808Z,2.58
2023-01-19T14:11:34.679Z,2.68
2023-01-19T14:14:36.266Z,2.60
2023-01-19T14:17:37.740Z,2.45
2023-01-19T14:20:39.533Z,2.54
2023-01-19T14:24:05.929Z,2.62
2023-01-19T14:27:18.153Z,2.67
2023-01-19T14:30:25.115Z,2.78
2023-01-19T14:33:43.609Z,2.78
2023-01-19T14:36:45.111Z,2.72
2023-01-19T14:40:12.865Z,2.63
2023-01-19T14:43:14.356Z,2.63
2023-01-19T14:46:20.625Z,2.61
2023-01-19T14:49:46.782Z,2.73
2023-01-19T14:53:01.900Z,2.68
2023-01-19T14:56:05.603Z,2.65
2023-01-19T14:59:10.843Z,2.72
2023-01-19T15:02:12.993Z,2.54
2023-01-19T15:05:14.670Z,2.67
2023-01-19T15:08:29.947Z,2.59
2023-01-19T15:11:33.767Z,2.65
2023-01-19T15:14:35.323Z,2.72
2023-01-19T15:17:37.063Z,2.65
2023-01-19T15:20:38.514Z,2.47
2023-01-19T15:23:40.209Z,2.58
2023-01-19T15:26:42.974Z,2.54
2023-01-19T15:29:45.106Z,2.65
2023-01-19T15:32:46.874Z,2.52
2023-01-19T15:35:49.162Z,2.48
2023-01-19T15:38:51.157Z,2.53
2023-01-19T15:41:52.897Z,2.49
2023-01-19T15:44:54.446Z,2.39
2023-01-19T15:47:55.970Z,2.29
2023-01-19T15:50:57.815Z,2.34
2023-01-19T15:53:59.424Z,2.48
2023-01-19T15:57:00.911Z,2.37
2023-01-19T16:00:04.707Z,2.35
2023-01-19T16:03:11.563Z,2.32
2023-01-19T16:06:14.040Z,2.35
2023-01-19T16:09:18.468Z,2.22
2023-01-19T16:12:19.965Z,2.26
2023-01-19T16:15:22.618Z,2.40
2023-01-19T16:18:24.133Z,2.44
2023-01-19T16:21:25.866Z,2.46
2023-01-19T16:24:27.356Z,2.45
2023-01-19T16:27:28.949Z,2.55
2023-01-19T16:30:30.778Z,2.59
2023-01-19T16:33:32.395Z,2.37
2023-01-19T16:36:36.252Z,2.18
2023-01-19T16:39:40.724Z,2.11
2023-01-19T16:42:42.483Z,2.38
2023-01-19T16:45:56.300Z,2.18
2023-01-19T16:49:06.338Z,1.98
2023-01-19T16:52:07.998Z,1.96
2023-01-19T16:55:11.251Z,2.17
2023-01-19T16:58:12.733Z,2.28
2023-01-19T17:01:20.198Z,1.99
2023-01-19T17:04:22.378Z,2.10
2023-01-19T17:07:23.838Z,2.07
2023-01-19T17:10:25.372Z,2.12
2023-01-19T17:13:26.821Z,2.20
2023-01-19T17:16:31.091Z,2.01
2023-01-19T17:19:32.679Z,2.18
2023-01-19T17:22:34.085Z,2.28
2023-01-19T17:25:36.785Z,2.26
2023-01-19T17:28:38.593Z,2.11
2023-01-19T17:31:40.546Z,2.16
2023-01-19T17:34:42.091Z,2.27
2023-01-19T17:37:43.623Z,2.23
2023-01-19T17:40:45.203Z,2.18
2023-01-19T17:43:47.279Z,2.22
2023-01-19T17:46:48.931Z,2.26
2023-01-19T17:49:50.395Z,2.28
2023-01-19T17:52:52.705Z,2.07
2023-01-19T17:55:54.418Z,1.95
2023-01-19T17:58:57.235Z,2.10
2023-01-19T18:01:59.006Z,2.14
2023-01-19T18:05:02.455Z,2.16
2023-01-19T18:08:04.547Z,2.16
2023-01-19T18:11:06.676Z,2.28
2023-01-19T18:14:09.414Z,2.13
2023-01-19T18:17:11.480Z,2.06
2023-01-19T18:20:13.772Z,2.05
2023-01-19T18:23:15.786Z,2.06
2023-01-19T18:26:21.049Z,2.11
2023-01-19T18:29:23.170Z,2.14
2023-01-19T18:32:27.110Z,1.95
2023-01-19T18:35:29.166Z,2.04
2023-01-19T18:38:31.264Z,2.16
2023-01-19T18:41:34.046Z,2.01
2023-01-19T18:44:35.625Z,1.96
2023-01-19T18:47:37.268Z,2.12
2023-01-19T18:50:38.790Z,1.78
2023-01-19T18:53:40.681Z,1.95
2023-01-19T18:56:42.151Z,1.87
2023-01-19T18:59:43.978Z,2.02
2023-01-19T19:02:45.418Z,2.00
2023-01-19T19:05:47.459Z,1.89
2023-01-19T19:08:50.834Z,2.06
2023-01-19T19:11:52.435Z,1.70
2023-01-19T19:14:53.864Z,1.80
2023-01-19T19:17:55.326Z,2.08
2023-01-19T19:20:56.783Z,2.01
2023-01-19T19:23:58.318Z,2.10
2023-01-19T19:27:14.799Z,1.92
2023-01-19T19:30:16.573Z,1.99
2023-01-19T19:33:18.035Z,2.08
2023-01-19T19:36:21.233Z,2.05
2023-01-19T19:39:22.753Z,2.13
2023-01-19T19:42:24.789Z,2.22
2023-01-19T19:45:26.874Z,2.10
2023-01-19T19:48:28.711Z,2.10
2023-01-19T19:51:30.164Z,2.22
2023-01-19T19:54:31.637Z,2.19
2023-01-19T19:57:33.219Z,2.16
2023-01-19T20:00:34.757Z,1.94
2023-01-19T20:03:36.444Z,1.85
2023-01-19T20:06:44.630Z,1.97
2023-01-19T20:09:46.401Z,1.93
2023-01-19T20:12:47.876Z,1.95
2023-01-19T20:15:49.405Z,1.98
2023-01-19T20:18:53.907Z,1.95
2023-01-19T20:21:55.575Z,1.94
2023-01-19T20:24:57.223Z,1.96
2023-01-19T20:27:59.381Z,1.86
2023-01-19T20:31:11.833Z,1.88
2023-01-19T20:34:16.151Z,1.88
2023-01-19T20:37:17.856Z,1.81
2023-01-19T20:40:19.615Z,1.84
2023-01-19T20:43:21.168Z,1.84
2023-01-19T20:46:22.630Z,1.86
2023-01-19T20:49:24.506Z,1.89
2023-01-19T20:52:26.073Z,1.80
2023-01-19T20:55:27.909Z,1.71
2023-01-19T20:58:31.230Z,1.73
2023-01-19T21:01:32.760Z,1.87
2023-01-19T21:04:34.280Z,1.87
2023-01-19T21:07:35.800Z,1.80
2023-01-19T21:10:37.371Z,1.79
2023-01-19T21:13:38.959Z,1.93
2023-01-19T21:16:42.509Z,1.99
2023-01-19T21:19:44.037Z,1.91
2023-01-19T21:22:45.580Z,1.85
2023-01-19T21:25:51.024Z,1.92
2023-01-19T21:28:52.481Z,1.89
2023-01-19T21:31:54.191Z,1.83
2023-01-19T21:34:55.734Z,1.75
2023-01-19T21:37:58.139Z,1.67
2023-01-19T21:41:04.398Z,1.75
2023-01-19T21:44:06.066Z,1.75
2023-01-19T21:47:09.708Z,1.86
2023-01-19T21:50:11.346Z,1.96
2023-01-19T21:53:12.894Z,1.95
2023-01-19T21:56:16.710Z,1.94
2023-01-19T21:59:20.330Z,1.80
2023-01-19T22:02:37.645Z,1.70
2023-01-19T22:05:39.876Z,1.78
2023-01-19T22:08:41.819Z,1.88
2023-01-19T22:11:43.302Z,1.86
2023-01-19T22:14:44.871Z,1.86
2023-01-19T22:17:46.348Z,1.87
2023-01-19T22:20:47.745Z,1.88
2023-01-19T22:23:50.684Z,1.90
2023-01-19T22:26:52.179Z,1.75
2023-01-19T22:29:53.956Z,1.69
2023-01-19T22:32:55.557Z,1.66
2023-01-19T22:36:09.870Z,1.57
2023-01-19T22:39:12.933Z,1.65
2023-01-19T22:42:14.399Z,1.78
2023-01-19T22:45:16.128Z,1.84
2023-01-19T22:48:17.570Z,1.73
2023-01-19T22:51:20.626Z,1.69
2023-01-19T22:54:23.133Z,1.70
2023-01-19T22:57:24.812Z,1.45
2023-01-19T23:00:26.551Z,1.57
2023-01-19T23:03:29.067Z,1.75
2023-01-19T23:06:31.677Z,1.82
2023-01-19T23:09:34.219Z,1.85
2023-01-19T23:12:35.690Z,1.53
2023-01-19T23:15:37.216Z,1.20
2023-01-19T23:18:39.483Z,1.35
2023-01-19T23:21:41.003Z,1.52
2023-01-19T23:24:42.490Z,1.58
2023-01-19T23:27:43.980Z,1.67
2023-01-19T23:30:45.603Z,1.78
2023-01-19T23:33:47.119Z,1.82
2023-01-19T23:36:48.785Z,1.49
2023-01-19T23:39:50.209Z,1.38
2023-01-19T23:42:51.760Z,1.46
2023-01-19T23:45:53.247Z,1.25
2023-01-19T23:48:55.216Z,1.46
2023-01-19T23:51:59.165Z,1.46
2023-01-19T23:55:00.632Z,1.10
2023-01-19T23:58:02.173Z,1.26
